Time;durP1;ratioP1;P1;durP2;ratioP2;P2;SDS_P1;SDS_P2;PMS_P1;PMS_P2;Temp;Humidity;BMP_temperature;BMP_pressure;BME280_temperature;BME280_humidity;BME280_pressure;Samples;Min_cycle;Max_cycle;Signal;HPM_P1;HPM_P2
2022/06/08 00:01:17;;;;;;;20.88;15.48;;;;;;;;;;8297430;28;20053;-83
2022/06/08 00:05:21;;;;;;;24.80;16.88;;;;;;;;;;8298828;28;20486;-82
2022/06/08 00:09:24;;;;;;;23.20;16.50;;;;;;;;;;8301047;28;20065;-83
2022/06/08 00:13:27;;;;;;;24.92;16.90;;;;;;;;;;8301143;28;20492;-83
2022/06/08 00:17:29;;;;;;;23.17;16.48;;;;;;;;;;8300620;28;20053;-82
2022/06/08 00:21:34;;;;;;;27.35;18.13;;;;;;;;;;8297673;28;20038;-84
2022/06/08 00:25:37;;;;;;;24.33;17.05;;;;;;;;;;8291031;28;20050;-90
2022/06/08 00:29:39;;;;;;;27.42;18.25;;;;;;;;;;8297489;28;20068;-83
2022/06/08 00:33:42;;;;;;;26.27;17.95;;;;;;;;;;8297808;28;20505;-83
2022/06/08 00:37:46;;;;;;;24.42;18.33;;;;;;;;;;8297105;28;20054;-85
2022/06/08 00:41:52;;;;;;;26.60;18.33;;;;;;;;;;8296820;28;20066;-83
2022/06/08 00:45:55;;;;;;;27.50;19.33;;;;;;;;;;8302426;28;20042;-83
2022/06/08 00:50:01;;;;;;;28.88;18.60;;;;;;;;;;8302526;28;20069;-84
2022/06/08 00:54:11;;;;;;;29.75;19.10;;;;;;;;;;8302436;28;20071;-89
2022/06/08 00:58:18;;;;;;;28.23;19.52;;;;;;;;;;8302373;28;20473;-84
2022/06/08 01:02:21;;;;;;;31.15;19.05;;;;;;;;;;8302181;28;20042;-84
2022/06/08 01:06:24;;;;;;;26.45;18.55;;;;;;;;;;8301824;28;20058;-91
2022/06/08 01:10:43;;;;;;;26.58;18.63;;;;;;;;;;8301840;28;20053;-84
2022/06/08 01:14:47;;;;;;;29.58;18.60;;;;;;;;;;8302133;28;20054;-83
2022/06/08 01:18:50;;;;;;;24.30;17.55;;;;;;;;;;8302067;28;20596;-83
2022/06/08 01:22:54;;;;;;;25.88;17.63;;;;;;;;;;8301494;28;20045;-86
2022/06/08 01:27:31;;;;;;;24.83;17.80;;;;;;;;;;8301337;28;20104;-84
2022/06/08 01:31:43;;;;;;;25.67;17.98;;;;;;;;;;8301268;28;20053;-84
2022/06/08 01:35:50;;;;;;;;;;;;;;;;;;8301532;28;20046;-83
2022/06/08 01:40:11;;;;;;;25.55;16.92;;;;;;;;;;8301028;28;20289;-83
2022/06/08 01:44:30;;;;;;;25.23;16.95;;;;;;;;;;8300892;28;20049;-84
2022/06/08 01:48:54;;;;;;;25.25;17.98;;;;;;;;;;8300731;28;20045;-83
2022/06/08 01:53:03;;;;;;;25.80;17.73;;;;;;;;;;8300606;28;20049;-90
2022/06/08 01:57:14;;;;;;;27.77;18.08;;;;;;;;;;8299612;28;20085;-85
2022/06/08 02:01:20;;;;;;;25.23;16.73;;;;;;;;;;8300449;28;20056;-87
2022/06/08 02:05:33;;;;;;;30.92;20.48;;;;;;;;;;8298603;28;20042;-83
2022/06/08 02:09:40;;;;;;;27.45;19.27;;;;;;;;;;8300042;28;20238;-83
2022/06/08 02:13:49;;;;;;;24.45;18.15;;;;;;;;;;8299826;28;20042;-83
2022/06/08 02:17:54;;;;;;;24.92;18.02;;;;;;;;;;8297861;28;20049;-83
2022/06/08 02:22:04;;;;;;;25.67;17.70;;;;;;;;;;8293732;28;20058;-82
2022/06/08 02:26:13;;;;;;;27.75;18.58;;;;;;;;;;8293604;28;20042;-91
2022/06/08 02:30:19;;;;;;;25.50;18.17;;;;;;;;;;8295465;28;20042;-88
2022/06/08 02:34:31;;;;;;;25.65;17.85;;;;;;;;;;8293371;28;20539;-91
2022/06/08 02:38:39;;;;;;;26.10;17.75;;;;;;;;;;8297955;28;20042;-83
2022/06/08 02:42:45;;;;;;;25.13;18.08;;;;;;;;;;8297930;28;20045;-83
2022/06/08 02:46:55;;;;;;;27.05;18.40;;;;;;;;;;8297070;28;20095;-83
2022/06/08 02:50:58;;;;;;;26.85;18.38;;;;;;;;;;8295663;28;20041;-82
2022/06/08 02:55:00;;;;;;;27.30;18.85;;;;;;;;;;8292468;28;20042;-87
2022/06/08 02:59:11;;;;;;;25.92;18.88;;;;;;;;;;8296614;28;20391;-84
2022/06/08 03:03:21;;;;;;;25.40;17.60;;;;;;;;;;8293431;28;20042;-90
2022/06/08 03:07:28;;;;;;;25.05;17.58;;;;;;;;;;8294770;28;20058;-84
2022/06/08 03:11:35;;;;;;;25.17;18.08;;;;;;;;;;8298379;28;20042;-85
2022/06/08 03:15:40;;;;;;;25.17;17.00;;;;;;;;;;8298186;28;20065;-82
2022/06/08 03:19:45;;;;;;;26.98;18.25;;;;;;;;;;8298555;28;20046;-83
2022/06/08 03:23:49;;;;;;;26.65;17.27;;;;;;;;;;8292481;28;20053;-82
2022/06/08 03:27:52;;;;;;;22.92;16.42;;;;;;;;;;8297868;28;20519;-83
2022/06/08 03:31:55;;;;;;;24.50;15.98;;;;;;;;;;8297775;28;20046;-83
2022/06/08 03:35:59;;;;;;;22.02;14.50;;;;;;;;;;8297186;28;20053;-86
2022/06/08 03:40:01;;;;;;;23.25;14.82;;;;;;;;;;8298050;28;20049;-83
2022/06/08 03:44:05;;;;;;;23.58;13.68;;;;;;;;;;8297224;28;20053;-90
2022/06/08 03:48:09;;;;;;;22.02;14.50;;;;;;;;;;8297515;28;20054;-85
2022/06/08 03:52:22;;;;;;;19.40;14.43;;;;;;;;;;8298213;28;20387;-84
2022/06/08 03:56:28;;;;;;;20.98;13.85;;;;;;;;;;8302516;28;20045;-83
2022/06/08 04:00:31;;;;;;;18.48;13.43;;;;;;;;;;8300018;28;20129;-84
2022/06/08 04:04:34;;;;;;;19.70;13.65;;;;;;;;;;8302529;28;20049;-83
2022/06/08 04:08:38;;;;;;;16.23;12.45;;;;;;;;;;8299285;28;20054;-83
2022/06/08 04:12:41;;;;;;;20.25;13.45;;;;;;;;;;8297298;28;20073;-84
2022/06/08 04:16:44;;;;;;;20.40;12.65;;;;;;;;;;8297380;28;20056;-85
2022/06/08 04:20:51;;;;;;;17.70;12.70;;;;;;;;;;8301974;28;20056;-91
2022/06/08 04:24:55;;;;;;;17.90;12.88;;;;;;;;;;8301809;28;20449;-83
2022/06/08 04:28:57;;;;;;;18.35;12.70;;;;;;;;;;8303234;28;20061;-84
2022/06/08 04:33:00;;;;;;;17.98;12.60;;;;;;;;;;8303493;28;20050;-84
2022/06/08 04:37:03;;;;;;;17.00;12.27;;;;;;;;;;8302869;28;20105;-89
2022/06/08 04:41:08;;;;;;;18.00;12.02;;;;;;;;;;8302819;28;20092;-90
2022/06/08 04:45:12;;;;;;;16.30;12.48;;;;;;;;;;8296989;28;20050;-83
2022/06/08 04:49:15;;;;;;;15.65;10.90;;;;;;;;;;8296511;28;20129;-84
2022/06/08 04:53:18;;;;;;;17.02;11.68;;;;;;;;;;8295850;28;20056;-84
2022/06/08 04:57:22;;;;;;;16.88;11.35;;;;;;;;;;8302656;28;20099;-83
2022/06/08 05:01:26;;;;;;;13.68;9.98;;;;;;;;;;8302245;28;20046;-83
2022/06/08 05:05:32;;;;;;;14.15;10.48;;;;;;;;;;8302059;28;20103;-83
2022/06/08 05:09:36;;;;;;;15.48;10.77;;;;;;;;;;8234928;28;20094;-86
2022/06/08 05:13:42;;;;;;;15.30;11.27;;;;;;;;;;8207045;28;20060;-86
2022/06/08 05:17:47;;;;;;;17.48;10.63;;;;;;;;;;8237076;28;20049;-84
2022/06/08 05:21:50;;;;;;;15.93;11.27;;;;;;;;;;8238833;28;20130;-83
2022/06/08 05:25:56;;;;;;;16.58;11.93;;;;;;;;;;8206480;28;20055;-83
2022/06/08 05:30:02;;;;;;;16.80;10.80;;;;;;;;;;8230865;28;20089;-86
2022/06/08 05:34:07;;;;;;;15.02;10.90;;;;;;;;;;8236664;28;20130;-86
2022/06/08 05:38:10;;;;;;;13.95;10.50;;;;;;;;;;8235983;28;20073;-83
2022/06/08 05:42:13;;;;;;;18.05;11.43;;;;;;;;;;8234102;28;20106;-90
2022/06/08 05:46:18;;;;;;;16.38;10.50;;;;;;;;;;8223367;28;20050;-90
2022/06/08 05:50:25;;;;;;;12.68;9.27;;;;;;;;;;8231680;28;20092;-91
2022/06/08 05:54:30;;;;;;;12.40;8.65;;;;;;;;;;8207538;28;20137;-84
2022/06/08 05:58:35;;;;;;;11.07;8.40;;;;;;;;;;8236012;28;20050;-84
2022/06/08 06:02:42;;;;;;;11.98;9.10;;;;;;;;;;8233998;28;20053;-84
2022/06/08 06:06:47;;;;;;;14.18;9.00;;;;;;;;;;8247248;28;20062;-84
2022/06/08 06:10:51;;;;;;;10.38;8.38;;;;;;;;;;8293373;28;20045;-84
2022/06/08 06:15:01;;;;;;;11.40;8.82;;;;;;;;;;8292375;28;20092;-91
2022/06/08 06:19:15;;;;;;;13.15;8.70;;;;;;;;;;8287884;28;20054;-82
2022/06/08 06:23:26;;;;;;;11.43;7.80;;;;;;;;;;8292935;28;20045;-80
2022/06/08 06:27:38;;;;;;;10.18;8.18;;;;;;;;;;8297016;28;20099;-88
2022/06/08 06:31:50;;;;;;;10.25;7.38;;;;;;;;;;8292075;28;20042;-84
2022/06/08 06:36:00;;;;;;;9.07;7.43;;;;;;;;;;8298593;28;20072;-82
2022/06/08 06:40:12;;;;;;;9.35;7.20;;;;;;;;;;8293827;28;20383;-81
2022/06/08 06:44:18;;;;;;;8.80;7.20;;;;;;;;;;8292953;28;20129;-86
2022/06/08 06:48:25;;;;;;;8.05;6.85;;;;;;;;;;8292653;28;20486;-85
2022/06/08 06:52:33;;;;;;;9.82;7.40;;;;;;;;;;8285953;28;20065;-83
2022/06/08 06:56:45;;;;;;;8.60;7.32;;;;;;;;;;8291659;28;20444;-82
2022/06/08 07:00:58;;;;;;;8.07;6.90;;;;;;;;;;8291458;28;20042;-83
2022/06/08 07:05:11;;;;;;;10.88;7.30;;;;;;;;;;8291800;28;20391;-85
2022/06/08 07:09:19;;;;;;;8.85;7.22;;;;;;;;;;8297380;28;20573;-85
2022/06/08 07:13:23;;;;;;;8.32;7.15;;;;;;;;;;8278738;28;20058;-83
2022/06/08 07:17:26;;;;;;;9.93;7.72;;;;;;;;;;8297054;28;20132;-83
2022/06/08 07:21:29;;;;;;;7.78;6.55;;;;;;;;;;8297864;28;20054;-83
2022/06/08 07:25:34;;;;;;;10.85;6.85;;;;;;;;;;8297300;28;20485;-83
2022/06/08 07:29:38;;;;;;;9.00;7.63;;;;;;;;;;8296939;28;20042;-83
2022/06/08 07:33:41;;;;;;;8.98;7.30;;;;;;;;;;8296874;28;20141;-83
2022/06/08 07:37:44;;;;;;;8.82;7.47;;;;;;;;;;8297133;28;20049;-88
2022/06/08 07:41:49;;;;;;;9.02;7.72;;;;;;;;;;8290769;28;20053;-83
2022/06/08 07:45:53;;;;;;;11.10;7.28;;;;;;;;;;8267319;28;20100;-88
2022/06/08 07:49:55;;;;;;;8.93;7.22;;;;;;;;;;8264880;28;20096;-84
2022/06/08 07:53:58;;;;;;;11.15;7.60;;;;;;;;;;8267801;28;20046;-86
2022/06/08 07:58:03;;;;;;;9.25;7.60;;;;;;;;;;8271349;28;20126;-84
2022/06/08 08:02:09;;;;;;;10.20;6.85;;;;;;;;;;8271835;28;20053;-83
2022/06/08 08:06:19;;;;;;;8.80;7.60;;;;;;;;;;8270474;28;20058;-83
2022/06/08 08:10:30;;;;;;;10.73;7.32;;;;;;;;;;8269965;28;20173;-84
2022/06/08 08:14:38;;;;;;;9.00;6.88;;;;;;;;;;8269932;28;20476;-83
2022/06/08 08:18:41;;;;;;;8.85;7.40;;;;;;;;;;8296916;28;20496;-82
2022/06/08 08:22:46;;;;;;;9.27;6.97;;;;;;;;;;8302827;28;20456;-82
2022/06/08 08:26:50;;;;;;;8.48;6.55;;;;;;;;;;8302603;28;20042;-83
2022/06/08 08:30:56;;;;;;;10.10;8.10;;;;;;;;;;8281105;28;20045;-90
2022/06/08 08:34:59;;;;;;;11.40;8.15;;;;;;;;;;8302420;28;20041;-82
2022/06/08 08:39:03;;;;;;;11.98;8.63;;;;;;;;;;8302430;28;20046;-81
2022/06/08 08:43:06;;;;;;;8.45;7.32;;;;;;;;;;8286507;28;20075;-82
2022/06/08 08:47:27;;;;;;;8.15;6.95;;;;;;;;;;8295989;28;20121;-82
2022/06/08 08:51:37;;;;;;;8.85;7.60;;;;;;;;;;8302000;28;20046;-81
2022/06/08 08:55:49;;;;;;;9.98;7.70;;;;;;;;;;8260664;28;20046;-88
2022/06/08 08:59:53;;;;;;;9.02;7.80;;;;;;;;;;8298632;28;20066;-86
2022/06/08 09:04:01;;;;;;;8.15;6.95;;;;;;;;;;8296437;28;20042;-82
2022/06/08 09:08:05;;;;;;;9.02;6.88;;;;;;;;;;8269185;28;20066;-81
2022/06/08 09:12:13;;;;;;;14.35;8.43;;;;;;;;;;8269534;28;20465;-81
2022/06/08 09:16:35;;;;;;;9.02;6.70;;;;;;;;;;8269480;28;20054;-81
2022/06/08 09:20:40;;;;;;;7.47;6.60;;;;;;;;;;8269478;28;20469;-81
2022/06/08 09:24:47;;;;;;;7.88;6.68;;;;;;;;;;8269590;28;20072;-81
2022/06/08 09:28:58;;;;;;;8.57;6.18;;;;;;;;;;8269269;28;20050;-81
2022/06/08 09:33:17;;;;;;;9.25;6.68;;;;;;;;;;8269075;28;20116;-82
2022/06/08 09:37:24;;;;;;;7.88;6.07;;;;;;;;;;8269331;28;20490;-81
2022/06/08 09:41:34;;;;;;;10.77;6.38;;;;;;;;;;8269193;28;20415;-81
2022/06/08 09:45:48;;;;;;;10.00;7.00;;;;;;;;;;8268680;28;20065;-82
2022/06/08 09:54:24;;;;;;;8.18;6.10;;;;;;;;;;8268390;28;20133;-81
2022/06/08 09:58:43;;;;;;;8.07;5.75;;;;;;;;;;8275208;28;20073;-81
2022/06/08 10:02:58;;;;;;;9.07;5.90;;;;;;;;;;8295255;28;20046;-81
2022/06/08 10:07:12;;;;;;;8.30;6.50;;;;;;;;;;8294900;28;20061;-82
2022/06/08 10:11:38;;;;;;;7.60;5.80;;;;;;;;;;8294684;28;20636;-82
2022/06/08 10:15:43;;;;;;;8.85;6.18;;;;;;;;;;8283035;28;20054;-85
2022/06/08 10:19:59;;;;;;;9.27;6.07;;;;;;;;;;8295060;28;20199;-82
2022/06/08 10:24:08;;;;;;;8.48;5.53;;;;;;;;;;8282136;28;20042;-82
2022/06/08 10:28:22;;;;;;;8.38;6.03;;;;;;;;;;8294338;28;20061;-82
2022/06/08 10:32:31;;;;;;;7.85;6.05;;;;;;;;;;8280708;28;20045;-81
2022/06/08 10:36:36;;;;;;;7.57;5.10;;;;;;;;;;8294523;28;20050;-82
2022/06/08 10:40:50;;;;;;;7.72;5.95;;;;;;;;;;8294242;28;20780;-81
2022/06/08 10:44:55;;;;;;;6.80;6.00;;;;;;;;;;8293886;28;20053;-81
2022/06/08 10:48:59;;;;;;;7.90;5.68;;;;;;;;;;8293470;28;20077;-81
2022/06/08 10:58:15;;;;;;;7.93;5.50;;;;;;;;;;8292833;28;20042;-81
2022/06/08 11:02:30;;;;;;;8.68;5.78;;;;;;;;;;8293455;28;20383;-83
2022/06/08 11:07:02;;;;;;;8.43;6.10;;;;;;;;;;8292674;28;20054;-81
2022/06/08 11:11:05;;;;;;;6.80;5.50;;;;;;;;;;8248303;28;20050;-81
2022/06/08 11:15:17;;;;;;;8.18;6.95;;;;;;;;;;8279765;28;20045;-82
2022/06/08 11:19:25;;;;;;;9.50;7.35;;;;;;;;;;8293082;28;20050;-82
2022/06/08 11:23:33;;;;;;;10.75;6.72;;;;;;;;;;8292520;28;20046;-83
2022/06/08 11:27:37;;;;;;;10.02;7.50;;;;;;;;;;8293071;28;20482;-83
2022/06/08 11:31:53;;;;;;;9.45;7.63;;;;;;;;;;8292317;28;20054;-83
2022/06/08 11:36:30;;;;;;;11.20;8.07;;;;;;;;;;8282373;28;20053;-87
2022/06/08 11:40:36;;;;;;;13.45;8.90;;;;;;;;;;8275456;28;20049;-89
2022/06/08 11:44:44;;;;;;;10.77;8.38;;;;;;;;;;8290090;28;20057;-85
2022/06/08 11:48:49;;;;;;;14.85;10.32;;;;;;;;;;8292555;28;20054;-87
2022/06/08 11:53:00;;;;;;;18.20;10.57;;;;;;;;;;8279594;28;20053;-86
2022/06/08 11:57:12;;;;;;;15.15;10.52;;;;;;;;;;8292224;28;20559;-86
2022/06/08 12:01:18;;;;;;;16.38;10.93;;;;;;;;;;8292750;28;20057;-86
2022/06/08 12:05:23;;;;;;;17.33;9.77;;;;;;;;;;8292341;28;20046;-87
2022/06/08 12:09:40;;;;;;;13.90;9.98;;;;;;;;;;8287395;28;20963;-85
2022/06/08 12:13:55;;;;;;;13.60;9.88;;;;;;;;;;8289964;28;20050;-89
2022/06/08 12:18:23;;;;;;;19.30;11.50;;;;;;;;;;8292304;28;20502;-89
2022/06/08 12:22:31;;;;;;;12.07;9.60;;;;;;;;;;8289599;28;20061;-86
2022/06/08 12:26:59;;;;;;;12.50;10.10;;;;;;;;;;8290714;28;20478;-85
2022/06/08 12:31:37;;;;;;;15.88;10.85;;;;;;;;;;8291592;28;20050;-89
2022/06/08 12:36:11;;;;;;;12.52;9.82;;;;;;;;;;8275574;28;20482;-86
2022/06/08 12:40:38;;;;;;;12.00;10.70;;;;;;;;;;8295492;28;20057;-90
2022/06/08 12:44:56;;;;;;;12.40;9.68;;;;;;;;;;8285596;28;20081;-85
2022/06/08 12:49:28;;;;;;;10.90;8.98;;;;;;;;;;8290438;28;20096;-87
2022/06/08 12:53:53;;;;;;;12.00;9.68;;;;;;;;;;8297258;28;20069;-86
2022/06/08 12:58:02;;;;;;;11.27;8.77;;;;;;;;;;8284760;28;20054;-84
2022/06/08 13:02:20;;;;;;;11.38;8.88;;;;;;;;;;8285541;28;20073;-84
2022/06/08 13:06:31;;;;;;;11.25;9.10;;;;;;;;;;8293538;28;20068;-88
2022/06/08 13:10:54;;;;;;;10.80;8.98;;;;;;;;;;8296071;28;20069;-87
2022/06/08 13:15:12;;;;;;;9.77;8.65;;;;;;;;;;8292673;28;20482;-83
2022/06/08 13:19:24;;;;;;;12.05;8.75;;;;;;;;;;8290155;28;20054;-89
2022/06/08 13:23:32;;;;;;;11.68;9.35;;;;;;;;;;8307563;28;20076;-83
2022/06/08 13:27:51;;;;;;;11.80;9.02;;;;;;;;;;8316617;28;20054;-82
2022/06/08 13:32:05;;;;;;;10.75;9.13;;;;;;;;;;8316879;28;20053;-83
2022/06/08 13:36:20;;;;;;;11.90;8.57;;;;;;;;;;8315764;28;20069;-89
2022/06/08 13:40:26;;;;;;;10.93;8.75;;;;;;;;;;8295486;28;20095;-88
2022/06/08 13:44:35;;;;;;;10.50;8.88;;;;;;;;;;8300207;28;20053;-89
2022/06/08 13:48:52;;;;;;;10.95;8.57;;;;;;;;;;8288982;28;20056;-84
2022/06/08 13:53:08;;;;;;;9.77;7.85;;;;;;;;;;8299489;28;20049;-89
2022/06/08 13:57:24;;;;;;;11.35;8.15;;;;;;;;;;8297746;28;20053;-86
2022/06/08 14:01:42;;;;;;;11.90;8.68;;;;;;;;;;8296396;28;20053;-87
2022/06/08 14:15:17;;;;;;;11.80;8.35;;;;;;;;;;8231157;28;20078;-89
2022/06/08 14:19:31;;;;;;;10.40;7.10;;;;;;;;;;8229291;28;20082;-85
2022/06/08 14:24:20;;;;;;;10.20;7.75;;;;;;;;;;8230679;28;20039;-85
2022/06/08 14:28:31;;;;;;;8.73;7.45;;;;;;;;;;8230903;28;20145;-88
2022/06/08 14:32:40;;;;;;;8.65;7.50;;;;;;;;;;8230267;28;20097;-87
2022/06/08 14:36:42;;;;;;;10.00;8.10;;;;;;;;;;8230039;28;20102;-88
2022/06/08 14:40:46;;;;;;;8.95;7.32;;;;;;;;;;8230275;28;20054;-87
2022/06/08 14:44:51;;;;;;;9.23;7.80;;;;;;;;;;8196683;28;20094;-83
2022/06/08 14:48:56;;;;;;;9.57;7.30;;;;;;;;;;8228608;28;20731;-83
2022/06/08 14:53:17;;;;;;;8.77;7.88;;;;;;;;;;8229372;28;20051;-83
2022/06/08 14:57:33;;;;;;;10.73;8.57;;;;;;;;;;8229161;28;20055;-84
2022/06/08 15:01:38;;;;;;;8.52;6.82;;;;;;;;;;8215387;28;20050;-89
2022/06/08 15:05:44;;;;;;;7.78;6.93;;;;;;;;;;8228682;28;20042;-87
2022/06/08 15:09:47;;;;;;;8.32;7.00;;;;;;;;;;8289588;28;20050;-88
2022/06/08 15:13:54;;;;;;;7.45;6.65;;;;;;;;;;8294256;28;20057;-86
2022/06/08 15:18:00;;;;;;;9.32;6.88;;;;;;;;;;8288982;28;20156;-89
2022/06/08 15:22:04;;;;;;;7.85;6.82;;;;;;;;;;8287914;28;20046;-87
2022/06/08 15:26:08;;;;;;;8.02;6.57;;;;;;;;;;8292320;28;20049;-87
2022/06/08 15:30:18;;;;;;;8.40;6.63;;;;;;;;;;8292451;28;20045;-84
2022/06/08 15:34:26;;;;;;;8.25;6.70;;;;;;;;;;8288806;28;20391;-83
2022/06/08 15:38:31;;;;;;;8.85;6.18;;;;;;;;;;8287200;28;20096;-87
2022/06/08 15:42:34;;;;;;;8.60;7.07;;;;;;;;;;8289315;28;20097;-85
2022/06/08 15:46:41;;;;;;;7.85;6.57;;;;;;;;;;8292194;28;20050;-83
2022/06/08 15:50:53;;;;;;;9.50;7.55;;;;;;;;;;8287437;28;20457;-85
2022/06/08 15:55:06;;;;;;;9.43;7.07;;;;;;;;;;8290594;28;20073;-86
2022/06/08 15:59:13;;;;;;;9.40;7.20;;;;;;;;;;8259892;28;20552;-83
2022/06/08 16:03:15;;;;;;;7.80;6.32;;;;;;;;;;8292527;28;20046;-84
2022/06/08 16:07:20;;;;;;;8.75;7.47;;;;;;;;;;8291891;28;20066;-87
2022/06/08 16:11:24;;;;;;;9.00;6.28;;;;;;;;;;8291029;28;20049;-84
2022/06/08 16:15:28;;;;;;;7.78;6.18;;;;;;;;;;8287731;28;20057;-83
2022/06/08 16:19:31;;;;;;;8.57;7.32;;;;;;;;;;8297784;28;20113;-82
2022/06/08 16:23:38;;;;;;;9.02;6.90;;;;;;;;;;8296287;28;20129;-83
2022/06/08 16:27:43;;;;;;;8.43;6.65;;;;;;;;;;8296104;28;20074;-83
2022/06/08 16:31:46;;;;;;;10.55;6.65;;;;;;;;;;8297332;28;20058;-82
2022/06/08 16:35:49;;;;;;;8.93;6.43;;;;;;;;;;8297393;28;20049;-82
2022/06/08 16:39:54;;;;;;;9.20;6.78;;;;;;;;;;8298438;28;20046;-83
2022/06/08 16:43:58;;;;;;;9.45;6.38;;;;;;;;;;8293680;28;20497;-83
2022/06/08 16:48:03;;;;;;;8.40;6.55;;;;;;;;;;8294877;28;20054;-86
2022/06/08 16:52:06;;;;;;;9.82;6.70;;;;;;;;;;8296365;28;20250;-83
2022/06/08 16:56:11;;;;;;;9.05;7.10;;;;;;;;;;8271555;28;20513;-84
2022/06/08 17:00:16;;;;;;;9.75;6.60;;;;;;;;;;8290179;28;20049;-83
2022/06/08 17:04:19;;;;;;;10.90;7.97;;;;;;;;;;8297529;28;20494;-83
2022/06/08 17:08:22;;;;;;;7.85;6.70;;;;;;;;;;8294912;28;20198;-83
2022/06/08 17:12:27;;;;;;;8.63;6.18;;;;;;;;;;8285408;28;20046;-83
2022/06/08 17:16:32;;;;;;;8.18;6.90;;;;;;;;;;8296279;28;20057;-86
2022/06/08 17:20:35;;;;;;;8.27;7.18;;;;;;;;;;8296485;28;20057;-83
2022/06/08 17:24:38;;;;;;;9.25;7.22;;;;;;;;;;8295920;28;20037;-83
2022/06/08 17:28:45;;;;;;;9.93;7.50;;;;;;;;;;8293467;28;20482;-83
2022/06/08 17:32:48;;;;;;;10.63;7.38;;;;;;;;;;8296224;28;20049;-87
2022/06/08 17:36:51;;;;;;;9.80;8.32;;;;;;;;;;8295768;28;20109;-87
2022/06/08 17:40:55;;;;;;;9.77;7.90;;;;;;;;;;8288745;28;20100;-86
2022/06/08 17:45:02;;;;;;;9.13;7.30;;;;;;;;;;8295759;28;20081;-87
2022/06/08 17:49:10;;;;;;;9.32;7.68;;;;;;;;;;8295540;28;20470;-87
2022/06/08 17:53:20;;;;;;;11.77;7.80;;;;;;;;;;8295362;28;20053;-87
2022/06/08 17:57:24;;;;;;;8.88;7.63;;;;;;;;;;8294819;28;20057;-87
2022/06/08 18:01:35;;;;;;;9.23;8.23;;;;;;;;;;8295520;28;20054;-89
2022/06/08 18:05:41;;;;;;;9.35;8.00;;;;;;;;;;8259834;28;20050;-87
2022/06/08 18:09:45;;;;;;;13.13;9.80;;;;;;;;;;8266655;28;20054;-89
2022/06/08 18:13:49;;;;;;;27.00;13.65;;;;;;;;;;8291723;28;20124;-87
2022/06/08 18:17:55;;;;;;;14.57;11.65;;;;;;;;;;8282249;28;20068;-88
2022/06/08 18:22:02;;;;;;;12.23;9.65;;;;;;;;;;8300107;28;20123;-87
2022/06/08 18:26:09;;;;;;;10.32;8.98;;;;;;;;;;8299253;28;20490;-87
2022/06/08 18:30:19;;;;;;;12.57;11.27;;;;;;;;;;8298143;28;20394;-88
2022/06/08 18:34:24;;;;;;;11.13;9.68;;;;;;;;;;8293992;28;20108;-86
2022/06/08 18:38:37;;;;;;;11.93;10.20;;;;;;;;;;8281210;28;20046;-85
2022/06/08 18:42:48;;;;;;;11.85;10.10;;;;;;;;;;8289191;28;20045;-87
2022/06/08 18:46:53;;;;;;;12.23;10.00;;;;;;;;;;8290312;28;20482;-86
2022/06/08 18:50:58;;;;;;;13.02;9.85;;;;;;;;;;8287158;28;20448;-90
2022/06/08 18:55:12;;;;;;;12.50;11.10;;;;;;;;;;8292523;28;20049;-89
2022/06/08 18:59:21;;;;;;;17.05;12.85;;;;;;;;;;8287188;28;20141;-88
2022/06/08 19:03:30;;;;;;;141.90;88.90;;;;;;;;;;8281560;28;20046;-88
2022/06/08 19:07:34;;;;;;;49.00;35.30;;;;;;;;;;8284749;28;20069;-86
2022/06/08 19:11:38;;;;;;;76.13;53.30;;;;;;;;;;8284837;28;20052;-89
2022/06/08 19:15:41;;;;;;;53.70;39.40;;;;;;;;;;8286271;28;20184;-86
2022/06/08 19:24:11;;;;;;;34.05;27.08;;;;;;;;;;8293039;28;20053;-88
2022/06/08 19:28:14;;;;;;;41.13;35.58;;;;;;;;;;8293905;28;20109;-87
2022/06/08 19:32:21;;;;;;;25.73;22.65;;;;;;;;;;8285065;28;20046;-86
2022/06/08 19:36:43;;;;;;;25.73;18.58;;;;;;;;;;8292927;28;20452;-87
2022/06/08 19:40:53;;;;;;;26.63;19.85;;;;;;;;;;8295973;28;20456;-87
2022/06/08 19:44:56;;;;;;;51.95;38.13;;;;;;;;;;8295606;28;20053;-87
2022/06/08 19:48:59;;;;;;;69.07;49.45;;;;;;;;;;8296729;28;20070;-88
2022/06/08 19:53:04;;;;;;;27.38;21.85;;;;;;;;;;8297149;28;20100;-88
2022/06/08 19:57:08;;;;;;;25.13;18.75;;;;;;;;;;8296972;28;20125;-87
2022/06/08 20:01:12;;;;;;;23.85;18.88;;;;;;;;;;8297496;28;20065;-88
2022/06/08 20:05:16;;;;;;;34.22;24.67;;;;;;;;;;8297612;28;20121;-86
2022/06/08 20:09:19;;;;;;;27.65;20.20;;;;;;;;;;8297178;28;20556;-86
2022/06/08 20:13:23;;;;;;;27.73;20.17;;;;;;;;;;8297388;28;20049;-88
2022/06/08 20:17:26;;;;;;;29.05;18.90;;;;;;;;;;8297319;28;20076;-87
2022/06/08 20:21:29;;;;;;;27.67;20.92;;;;;;;;;;8297186;28;20500;-85
2022/06/08 20:25:36;;;;;;;27.60;18.55;;;;;;;;;;8297249;28;20046;-88
2022/06/08 20:29:40;;;;;;;25.70;19.58;;;;;;;;;;8297122;28;20053;-86
2022/06/08 20:33:44;;;;;;;23.05;18.02;;;;;;;;;;8297034;28;20069;-86
2022/06/08 20:37:46;;;;;;;24.42;18.05;;;;;;;;;;8296935;28;20096;-86
2022/06/08 20:41:49;;;;;;;20.30;16.80;;;;;;;;;;8296846;28;20058;-86
2022/06/08 20:45:55;;;;;;;23.38;17.98;;;;;;;;;;8296853;28;20147;-86
2022/06/08 20:49:58;;;;;;;22.52;18.08;;;;;;;;;;8296817;28;20046;-88
2022/06/08 20:54:01;;;;;;;25.98;18.98;;;;;;;;;;8296882;28;20409;-87
2022/06/08 20:58:04;;;;;;;58.78;37.58;;;;;;;;;;8296581;28;20529;-88
2022/06/08 21:02:14;;;;;;;33.67;23.90;;;;;;;;;;8301222;28;20469;-88
2022/06/08 21:06:18;;;;;;;25.40;19.25;;;;;;;;;;8302117;28;20042;-88
2022/06/08 21:10:21;;;;;;;24.88;17.42;;;;;;;;;;8302284;28;20129;-86
2022/06/08 21:14:24;;;;;;;27.45;20.42;;;;;;;;;;8301978;28;20046;-88
2022/06/08 21:18:29;;;;;;;24.63;19.00;;;;;;;;;;8302053;28;20038;-86
2022/06/08 21:22:31;;;;;;;22.67;15.95;;;;;;;;;;8302380;28;20491;-87
2022/06/08 21:26:34;;;;;;;25.85;17.38;;;;;;;;;;8301774;28;20052;-88
2022/06/08 21:30:37;;;;;;;19.25;15.35;;;;;;;;;;8301681;28;20045;-86
2022/06/08 21:34:41;;;;;;;22.10;16.13;;;;;;;;;;8302037;28;20525;-88
2022/06/08 21:38:44;;;;;;;20.65;16.50;;;;;;;;;;8301381;28;20038;-86
2022/06/08 21:42:46;;;;;;;24.25;17.25;;;;;;;;;;8301241;28;20042;-87
2022/06/08 21:46:49;;;;;;;21.48;15.98;;;;;;;;;;8301227;28;20390;-88
2022/06/08 21:50:54;;;;;;;21.58;16.48;;;;;;;;;;8300816;28;20073;-87
2022/06/08 21:54:57;;;;;;;22.08;15.65;;;;;;;;;;8300904;28;20056;-88
2022/06/08 21:58:59;;;;;;;22.92;16.05;;;;;;;;;;8300725;28;20494;-86
2022/06/08 22:03:03;;;;;;;21.38;16.35;;;;;;;;;;8300670;28;20052;-88
2022/06/08 22:07:06;;;;;;;23.98;16.75;;;;;;;;;;8300247;28;20457;-86
2022/06/08 22:11:18;;;;;;;22.27;16.73;;;;;;;;;;8299379;28;20046;-86
2022/06/08 22:15:23;;;;;;;23.30;16.87;;;;;;;;;;8301256;28;20041;-87
2022/06/08 22:19:26;;;;;;;22.38;16.75;;;;;;;;;;8299930;28;20128;-86
2022/06/08 22:23:31;;;;;;;23.75;16.17;;;;;;;;;;8300460;28;20124;-86
2022/06/08 22:27:34;;;;;;;23.35;15.77;;;;;;;;;;8300763;28;20496;-88
2022/06/08 22:31:36;;;;;;;22.83;17.02;;;;;;;;;;8300091;28;20054;-88
2022/06/08 22:35:41;;;;;;;27.75;17.65;;;;;;;;;;8299716;28;20042;-86
2022/06/08 22:39:45;;;;;;;21.20;16.13;;;;;;;;;;8299372;28;20057;-87
2022/06/08 22:43:48;;;;;;;26.40;16.45;;;;;;;;;;8299259;28;20050;-86
2022/06/08 22:47:50;;;;;;;26.15;18.00;;;;;;;;;;8299247;28;20056;-87
2022/06/08 22:51:53;;;;;;;24.38;16.90;;;;;;;;;;8299149;28;20064;-86
2022/06/08 22:55:57;;;;;;;23.52;17.13;;;;;;;;;;8298919;28;20402;-87
2022/06/08 23:00:00;;;;;;;25.92;17.88;;;;;;;;;;8298903;28;20054;-87
2022/06/08 23:04:03;;;;;;;27.63;19.10;;;;;;;;;;8298772;28;20053;-86
2022/06/08 23:08:07;;;;;;;28.63;18.02;;;;;;;;;;8298554;28;20478;-88
2022/06/08 23:12:11;;;;;;;28.27;18.90;;;;;;;;;;8298502;28;20053;-88
2022/06/08 23:20:38;;;;;;;32.45;21.55;;;;;;;;;;8298767;28;20541;-89
2022/06/08 23:24:40;;;;;;;37.20;22.42;;;;;;;;;;8298076;28;20053;-88
2022/06/08 23:28:46;;;;;;;39.40;23.10;;;;;;;;;;8298238;28;20378;-87
2022/06/08 23:32:48;;;;;;;37.65;23.55;;;;;;;;;;8298163;28;20042;-89
2022/06/08 23:36:51;;;;;;;35.65;22.42;;;;;;;;;;8297951;28;20044;-86
2022/06/08 23:40:55;;;;;;;29.48;21.13;;;;;;;;;;8297723;28;20049;-88
2022/06/08 23:44:59;;;;;;;35.78;22.67;;;;;;;;;;8297920;28;20497;-86
2022/06/08 23:49:02;;;;;;;33.03;21.95;;;;;;;;;;8297706;28;20042;-87
2022/06/08 23:53:05;;;;;;;32.75;21.17;;;;;;;;;;8297799;28;20049;-86
2022/06/08 23:57:08;;;;;;;32.78;20.80;;;;;;;;;;8297668;28;20049;-89
